createdAt,value
2023-05-06T18:30:26.255Z,69.90
2023-05-06T18:32:55.181Z,70.80
2023-05-06T18:35:23.825Z,70.40
2023-05-06T18:37:53.303Z,70.70
2023-05-06T18:40:20.428Z,70.70
2023-05-06T18:42:47.666Z,70.60
2023-05-06T18:45:17.457Z,71.10
2023-05-06T18:47:44.613Z,70.60
2023-05-06T18:50:12.105Z,70.70
2023-05-06T18:52:39.462Z,71.20
2023-05-06T18:55:07.565Z,71.10
2023-05-06T18:57:34.773Z,71.40
2023-05-06T19:00:03.362Z,71.60
2023-05-06T19:02:30.538Z,72.20
2023-05-06T19:04:58.378Z,72.00
2023-05-06T19:07:40.518Z,72.20
2023-05-06T19:10:08.023Z,72.70
2023-05-06T19:12:35.416Z,72.40
2023-05-06T19:15:02.619Z,72.50
2023-05-06T19:17:29.803Z,72.60
2023-05-06T19:19:57.996Z,72.40
2023-05-06T19:22:25.112Z,72.60
2023-05-06T19:24:52.420Z,72.60
2023-05-06T19:27:19.542Z,73.00
2023-05-06T19:29:48.289Z,73.40
2023-05-06T19:32:15.469Z,73.30
2023-05-06T19:34:42.597Z,73.70
2023-05-06T19:37:09.697Z,73.50
2023-05-06T19:39:36.824Z,73.50
2023-05-06T19:42:04.097Z,73.50
2023-05-06T19:44:33.202Z,73.70
2023-05-06T19:47:00.398Z,73.70
2023-05-06T19:49:27.550Z,73.60
2023-05-06T19:51:54.701Z,74.30
2023-05-06T19:54:22.487Z,73.60
2023-05-06T19:56:49.590Z,74.10
2023-05-06T19:59:17.915Z,74.70
2023-05-06T20:01:45.138Z,74.30
2023-05-06T20:04:12.410Z,74.80
2023-05-06T20:06:42.950Z,74.70
2023-05-06T20:09:10.392Z,74.70
2023-05-06T20:11:37.922Z,74.60
2023-05-06T20:14:05.004Z,74.60
2023-05-06T20:16:32.153Z,74.80
2023-05-06T20:19:04.057Z,75.00
2023-05-06T20:21:42.737Z,75.10
2023-05-06T20:24:15.445Z,75.00
2023-05-06T20:26:43.705Z,75.40
2023-05-06T20:29:10.864Z,75.50
2023-05-06T20:31:39.168Z,75.30
2023-05-06T20:34:06.351Z,75.70
2023-05-06T20:36:36.545Z,75.60
2023-05-06T20:39:04.106Z,75.30
2023-05-06T20:41:35.751Z,75.40
2023-05-06T20:44:05.821Z,75.60
2023-05-06T20:46:33.196Z,75.60
2023-05-06T20:49:00.360Z,75.60
2023-05-06T20:51:30.622Z,75.90
2023-05-06T20:54:00.401Z,75.60
2023-05-06T20:56:28.782Z,76.00
2023-05-06T20:58:56.274Z,76.00
2023-05-06T21:01:25.597Z,75.90
2023-05-06T21:03:52.791Z,76.40
2023-05-06T21:06:19.882Z,76.00
2023-05-06T21:08:47.307Z,76.00
2023-05-06T21:11:14.422Z,76.20
2023-05-06T21:13:42.015Z,76.30
2023-05-06T21:16:09.171Z,76.00
2023-05-06T21:18:36.923Z,75.80
2023-05-06T21:21:04.262Z,76.10
2023-05-06T21:23:31.769Z,76.20
2023-05-06T21:25:59.696Z,78.00
2023-05-06T21:28:26.852Z,76.30
2023-05-06T21:30:55.062Z,77.20
2023-05-06T21:33:23.535Z,77.60
2023-05-06T21:35:50.693Z,78.10
2023-05-06T21:38:17.734Z,77.60
2023-05-06T21:40:44.811Z,77.50
2023-05-06T21:43:13.037Z,77.20
2023-05-06T21:45:40.229Z,77.50
2023-05-06T21:48:07.473Z,77.20
2023-05-06T21:50:36.809Z,77.50
2023-05-06T21:53:03.995Z,77.40
2023-05-06T21:55:31.186Z,77.50
2023-05-06T21:57:58.280Z,77.40
2023-05-06T22:00:25.528Z,77.30
2023-05-06T22:02:54.544Z,77.10
2023-05-06T22:05:21.976Z,76.60
2023-05-06T22:07:49.782Z,76.40
2023-05-06T22:10:19.200Z,76.30
2023-05-06T22:12:46.413Z,76.20
2023-05-06T22:15:14.819Z,75.90
2023-05-06T22:17:42.024Z,75.70
2023-05-06T22:20:11.144Z,75.70
2023-05-06T22:22:38.517Z,75.50
2023-05-06T22:25:06.198Z,76.10
2023-05-06T22:27:34.515Z,75.80
2023-05-06T22:30:01.818Z,75.70
2023-05-06T22:32:29.222Z,75.60
2023-05-06T22:34:56.436Z,75.50
2023-05-06T22:37:23.692Z,75.40
2023-05-06T22:39:53.032Z,75.60
2023-05-06T22:42:20.650Z,75.50
2023-05-06T22:44:47.785Z,75.30
2023-05-06T22:47:16.495Z,75.40
2023-05-06T22:49:43.635Z,75.30
2023-05-06T22:52:11.098Z,75.30
2023-05-06T22:54:38.161Z,75.30
2023-05-06T22:57:05.458Z,75.00
2023-05-06T22:59:32.734Z,75.10
2023-05-06T23:01:59.932Z,75.00
2023-05-06T23:04:27.148Z,74.90
2023-05-06T23:06:54.266Z,75.10
2023-05-06T23:09:22.538Z,75.00
2023-05-06T23:11:49.755Z,75.00
2023-05-06T23:14:17.450Z,74.80
2023-05-06T23:16:45.105Z,74.90
2023-05-06T23:19:12.264Z,75.00
2023-05-06T23:21:41.492Z,75.00
2023-05-06T23:24:08.847Z,75.00
2023-05-06T23:26:36.199Z,75.60
2023-05-06T23:29:03.411Z,75.60
2023-05-06T23:31:30.774Z,75.90
2023-05-06T23:33:57.999Z,75.90
2023-05-06T23:36:25.174Z,75.60
2023-05-06T23:38:52.347Z,76.10
2023-05-06T23:41:19.580Z,76.40
2023-05-06T23:43:46.760Z,77.40
2023-05-06T23:46:13.997Z,78.90
2023-05-06T23:48:41.284Z,79.30
2023-05-06T23:51:08.497Z,79.80
2023-05-06T23:53:36.205Z,78.90
2023-05-06T23:56:03.705Z,80.10
2023-05-06T23:58:33.552Z,79.40
